createdAt,value
2022-10-19T00:00:30.599Z,22.00
2022-10-19T00:01:20.397Z,21.40
2022-10-19T00:02:08.211Z,20.25
2022-10-19T00:02:55.089Z,20.67
2022-10-19T00:03:42.914Z,20.00
2022-10-19T00:04:30.079Z,20.42
2022-10-19T00:05:17.364Z,19.98
2022-10-19T00:06:17.749Z,17.25
2022-10-19T00:07:04.680Z,17.70
2022-10-19T00:07:51.621Z,18.70
2022-10-19T00:08:38.653Z,21.70
2022-10-19T00:09:25.560Z,21.70
2022-10-19T00:10:12.651Z,19.50
2022-10-19T00:11:01.750Z,20.17
2022-10-19T00:11:50.511Z,18.10
2022-10-19T00:12:37.829Z,18.77
2022-10-19T00:13:24.890Z,20.37
2022-10-19T00:14:17.121Z,19.12
2022-10-19T00:15:05.670Z,18.77
2022-10-19T00:15:52.620Z,20.30
2022-10-19T00:16:39.665Z,20.15
2022-10-19T00:17:26.841Z,21.65
2022-10-19T00:18:13.738Z,22.05
2022-10-19T00:19:02.386Z,20.77
2022-10-19T00:19:49.400Z,20.88
2022-10-19T00:20:37.152Z,24.60
2022-10-19T00:21:24.231Z,21.75
2022-10-19T00:22:13.183Z,19.92
2022-10-19T00:23:01.041Z,20.30
2022-10-19T00:23:48.861Z,22.20
2022-10-19T00:24:35.810Z,23.08
2022-10-19T00:25:22.690Z,22.85
2022-10-19T00:26:10.025Z,24.58
2022-10-19T00:26:56.879Z,21.95
2022-10-19T00:27:44.059Z,21.37
2022-10-19T00:28:31.511Z,21.45
2022-10-19T00:29:18.490Z,21.50
2022-10-19T00:30:06.139Z,21.17
2022-10-19T00:30:53.182Z,23.15
2022-10-19T00:31:40.761Z,24.70
2022-10-19T00:32:27.871Z,25.17
2022-10-19T00:33:14.865Z,24.70
2022-10-19T00:34:01.961Z,25.10
2022-10-19T00:34:48.950Z,25.23
2022-10-19T00:35:40.769Z,23.38
2022-10-19T00:36:28.967Z,23.08
2022-10-19T00:37:15.899Z,27.17
2022-10-19T00:38:02.871Z,24.63
2022-10-19T00:38:49.860Z,24.10
2022-10-19T00:39:36.825Z,27.45
2022-10-19T00:40:23.782Z,27.95
2022-10-19T00:41:10.832Z,24.27
2022-10-19T00:41:57.690Z,26.27
2022-10-19T00:42:44.740Z,26.75
2022-10-19T00:43:31.840Z,26.42
2022-10-19T00:44:19.199Z,24.87
2022-10-19T00:45:15.572Z,22.42
2022-10-19T00:46:02.490Z,24.40
2022-10-19T00:46:49.489Z,24.83
2022-10-19T00:47:36.461Z,25.20
2022-10-19T00:48:26.964Z,26.05
2022-10-19T00:49:23.906Z,24.12
2022-10-19T00:50:11.418Z,27.23
2022-10-19T00:51:00.420Z,27.90
2022-10-19T00:51:51.910Z,26.98
2022-10-19T00:52:38.843Z,26.65
2022-10-19T00:53:29.342Z,26.42
2022-10-19T00:55:03.875Z,26.20
2022-10-19T00:55:50.950Z,26.00
2022-10-19T00:56:41.669Z,26.90
2022-10-19T00:57:30.889Z,27.33
2022-10-19T00:58:17.900Z,28.12
2022-10-19T00:59:05.761Z,27.80
2022-10-19T00:59:52.711Z,27.90
2022-10-19T01:00:39.916Z,26.70
2022-10-19T01:01:27.985Z,28.17
2022-10-19T01:02:14.842Z,30.02
2022-10-19T01:03:01.913Z,29.15
2022-10-19T01:03:49.240Z,28.65
2022-10-19T01:04:38.894Z,25.17
2022-10-19T01:05:26.806Z,26.70
2022-10-19T01:06:15.308Z,25.27
2022-10-19T01:07:04.273Z,25.95
2022-10-19T01:07:51.330Z,26.98
2022-10-19T01:08:38.330Z,25.02
2022-10-19T01:09:25.153Z,25.00
2022-10-19T01:10:12.580Z,26.17
2022-10-19T01:11:37.832Z,26.08
2022-10-19T01:12:58.999Z,26.67
2022-10-19T01:17:04.800Z,27.23
2022-10-19T01:18:25.460Z,27.23
2022-10-19T01:19:49.860Z,26.98
2022-10-19T01:20:52.349Z,28.33
2022-10-19T01:21:48.116Z,27.90
2022-10-19T01:23:11.861Z,28.85
2022-10-19T01:24:18.229Z,30.27
2022-10-19T01:25:31.052Z,28.02
2022-10-19T01:26:52.581Z,28.80
2022-10-19T01:27:46.751Z,27.65
2022-10-19T01:28:45.187Z,28.83
2022-10-19T01:29:56.861Z,28.60
2022-10-19T01:30:56.070Z,27.98
2022-10-19T01:32:00.671Z,29.08
2022-10-19T01:33:04.193Z,28.52
2022-10-19T01:34:10.999Z,29.10
2022-10-19T01:35:31.049Z,29.02
2022-10-19T01:36:24.209Z,26.33
2022-10-19T01:37:22.791Z,27.27
2022-10-19T01:38:25.657Z,30.15
2022-10-19T01:39:25.610Z,30.55
2022-10-19T01:40:40.090Z,31.73
2022-10-19T01:42:04.509Z,30.02
2022-10-19T01:43:04.749Z,29.40
2022-10-19T01:44:01.662Z,30.67
2022-10-19T01:44:58.880Z,29.87
2022-10-19T01:45:48.129Z,31.90
2022-10-19T01:46:39.289Z,31.83
2022-10-19T01:47:44.191Z,32.80
2022-10-19T01:48:35.260Z,32.13
2022-10-19T01:49:40.430Z,32.03
2022-10-19T01:50:40.181Z,33.50
2022-10-19T01:51:31.279Z,31.98
2022-10-19T01:52:20.016Z,33.20
2022-10-19T01:53:08.462Z,31.83
2022-10-19T01:53:58.441Z,33.72
2022-10-19T01:54:49.758Z,31.87
2022-10-19T01:55:41.051Z,32.08
2022-10-19T01:56:28.620Z,33.95
2022-10-19T01:57:23.156Z,33.47
2022-10-19T01:58:13.790Z,32.88
2022-10-19T01:59:04.091Z,31.70
2022-10-19T01:59:51.902Z,33.00
2022-10-19T02:00:41.457Z,33.55
2022-10-19T02:01:31.053Z,32.05
2022-10-19T02:02:18.952Z,32.00
2022-10-19T02:03:06.933Z,31.73
2022-10-19T02:03:54.550Z,32.42
2022-10-19T02:04:41.809Z,33.50
2022-10-19T02:05:32.460Z,32.55
2022-10-19T02:06:19.999Z,33.08
2022-10-19T02:07:07.700Z,34.35
2022-10-19T02:08:01.468Z,33.83
2022-10-19T02:08:50.990Z,33.00
2022-10-19T02:09:37.979Z,32.92
2022-10-19T02:10:25.361Z,32.50
2022-10-19T02:11:12.451Z,33.25
2022-10-19T02:12:02.508Z,32.15
2022-10-19T02:12:49.660Z,31.42
2022-10-19T02:13:37.469Z,31.83
2022-10-19T02:14:29.063Z,31.52
2022-10-19T02:15:20.969Z,29.95
2022-10-19T02:16:13.169Z,30.42
2022-10-19T02:17:04.019Z,30.37
2022-10-19T02:17:53.550Z,30.98
2022-10-19T02:18:45.341Z,30.83
2022-10-19T02:19:32.371Z,30.52
2022-10-19T02:20:20.771Z,30.05
2022-10-19T02:21:08.190Z,30.65
2022-10-19T02:21:55.180Z,30.17
2022-10-19T02:22:42.622Z,30.12
2022-10-19T02:23:29.670Z,30.27
2022-10-19T02:24:16.520Z,30.02
2022-10-19T02:25:03.843Z,31.33
2022-10-19T02:25:50.899Z,28.55
2022-10-19T02:26:38.480Z,30.27
2022-10-19T02:27:25.460Z,31.52
2022-10-19T02:28:12.629Z,30.37
2022-10-19T02:28:59.770Z,31.33
2022-10-19T02:29:46.871Z,31.35
2022-10-19T02:30:34.012Z,30.35
2022-10-19T02:31:21.229Z,31.40
2022-10-19T02:32:10.550Z,32.25
2022-10-19T02:32:57.491Z,31.73
2022-10-19T02:33:44.690Z,32.10
2022-10-19T02:34:31.850Z,33.45
2022-10-19T02:35:18.779Z,34.42
2022-10-19T02:36:06.033Z,33.90
2022-10-19T02:36:53.080Z,35.47
2022-10-19T02:37:40.631Z,35.33
2022-10-19T02:38:27.849Z,35.42
2022-10-19T02:39:14.818Z,34.97
2022-10-19T02:40:01.802Z,35.17
2022-10-19T02:41:07.386Z,34.55
2022-10-19T02:42:18.736Z,32.95
2022-10-19T02:43:10.822Z,34.42
2022-10-19T02:44:01.770Z,34.92
2022-10-19T02:44:53.851Z,36.17
2022-10-19T02:45:48.960Z,34.90
2022-10-19T02:46:44.847Z,37.05
2022-10-19T02:47:36.226Z,36.15
2022-10-19T02:48:25.230Z,37.22
2022-10-19T02:49:12.839Z,36.78
2022-10-19T02:49:59.763Z,36.83
2022-10-19T02:50:50.170Z,36.55
2022-10-19T02:51:39.580Z,36.13
2022-10-19T02:52:26.552Z,37.63
2022-10-19T02:53:14.283Z,37.90
2022-10-19T02:54:04.257Z,37.72
2022-10-19T02:54:52.280Z,38.50
2022-10-19T02:55:42.280Z,38.88
2022-10-19T02:56:29.390Z,36.60
2022-10-19T02:57:23.129Z,39.15
2022-10-19T02:58:10.385Z,39.40
2022-10-19T02:58:57.446Z,38.88
2022-10-19T02:59:44.498Z,41.47
2022-10-19T03:00:31.550Z,40.90
2022-10-19T03:01:18.567Z,41.63
2022-10-19T03:02:05.538Z,41.10
2022-10-19T03:02:52.493Z,39.95
2022-10-19T03:03:39.349Z,42.15
2022-10-19T03:04:26.309Z,40.15
2022-10-19T03:05:13.270Z,38.92
2022-10-19T03:06:00.183Z,39.67
2022-10-19T03:06:47.131Z,38.83
2022-10-19T03:07:34.253Z,40.83
2022-10-19T03:08:21.320Z,41.03
2022-10-19T03:09:08.621Z,39.78
2022-10-19T03:09:55.564Z,41.45
2022-10-19T03:10:42.630Z,42.17
2022-10-19T03:11:29.509Z,41.53
2022-10-19T03:12:16.520Z,42.83
2022-10-19T03:13:03.539Z,43.92
2022-10-19T03:13:50.444Z,41.10
2022-10-19T03:14:37.365Z,42.90
2022-10-19T03:15:27.491Z,41.78
2022-10-19T03:16:14.620Z,41.30
2022-10-19T03:17:01.552Z,43.22
2022-10-19T03:17:48.491Z,44.83
2022-10-19T03:18:35.498Z,44.25
2022-10-19T03:19:22.420Z,43.40
2022-10-19T03:20:10.708Z,44.00
2022-10-19T03:21:05.711Z,44.78
2022-10-19T03:21:52.641Z,45.10
2022-10-19T03:22:39.526Z,43.53
2022-10-19T03:23:26.450Z,43.80
2022-10-19T03:24:13.391Z,44.78
2022-10-19T03:25:00.360Z,45.12
2022-10-19T03:25:47.241Z,44.08
2022-10-19T03:26:34.250Z,44.15
2022-10-19T03:27:21.329Z,42.85
2022-10-19T03:28:08.249Z,45.83
2022-10-19T03:28:55.223Z,45.47
2022-10-19T03:29:42.150Z,44.47
2022-10-19T03:30:29.170Z,44.72
2022-10-19T03:31:16.000Z,46.50
2022-10-19T03:32:03.083Z,44.83
2022-10-19T03:32:50.059Z,44.92
2022-10-19T03:33:37.072Z,46.00
2022-10-19T03:34:24.011Z,45.83
2022-10-19T03:35:10.931Z,45.30
2022-10-19T03:36:16.391Z,44.00
2022-10-19T03:37:03.407Z,43.92
2022-10-19T03:37:50.320Z,45.28
2022-10-19T03:38:37.191Z,43.20
2022-10-19T03:39:24.141Z,45.00
2022-10-19T03:40:11.211Z,44.22
2022-10-19T03:40:58.181Z,44.78
2022-10-19T03:41:45.509Z,45.33
2022-10-19T03:42:32.579Z,44.92
2022-10-19T03:43:19.509Z,43.40
2022-10-19T03:44:07.472Z,44.75
2022-10-19T03:44:54.358Z,42.58
2022-10-19T03:45:41.270Z,43.58
2022-10-19T03:46:28.230Z,42.92
2022-10-19T03:47:15.301Z,42.90
2022-10-19T03:48:02.330Z,44.08
2022-10-19T03:48:49.728Z,42.05
2022-10-19T03:49:38.120Z,42.33
2022-10-19T03:51:16.129Z,41.45
2022-10-19T03:52:03.130Z,41.17
2022-10-19T03:52:50.346Z,41.33
2022-10-19T03:53:37.910Z,41.42
2022-10-19T03:54:27.300Z,41.65
2022-10-19T03:55:16.302Z,39.97
2022-10-19T03:56:09.171Z,41.50
2022-10-19T03:56:56.039Z,41.58
2022-10-19T03:57:43.030Z,40.12
2022-10-19T03:58:29.980Z,41.03
2022-10-19T03:59:17.131Z,41.08
2022-10-19T04:00:08.429Z,41.15
2022-10-19T04:00:55.484Z,39.72
2022-10-19T04:01:45.122Z,41.53
2022-10-19T04:02:32.180Z,40.42
2022-10-19T04:03:19.129Z,40.65
2022-10-19T04:04:10.690Z,39.80
2022-10-19T04:04:57.670Z,42.92
2022-10-19T04:05:44.668Z,40.15
2022-10-19T04:06:33.833Z,42.75
2022-10-19T04:07:20.774Z,40.70
2022-10-19T04:08:07.785Z,40.67
2022-10-19T04:08:55.180Z,41.28
2022-10-19T04:09:42.090Z,42.17
2022-10-19T04:10:31.545Z,41.05
2022-10-19T04:11:21.200Z,39.60
2022-10-19T04:12:08.060Z,40.77
2022-10-19T04:12:54.980Z,42.03
2022-10-19T04:13:42.039Z,40.15
2022-10-19T04:14:32.508Z,41.33
2022-10-19T04:15:19.860Z,41.58
2022-10-19T04:16:07.718Z,42.50
2022-10-19T04:16:54.780Z,40.20
2022-10-19T04:17:43.132Z,40.47
2022-10-19T04:18:31.771Z,42.15
2022-10-19T04:19:18.711Z,40.63
2022-10-19T04:20:06.282Z,40.55
2022-10-19T04:20:59.950Z,41.63
2022-10-19T04:21:49.154Z,41.00
2022-10-19T04:22:36.021Z,42.10
2022-10-19T04:23:22.941Z,43.45
2022-10-19T04:24:14.901Z,42.60
2022-10-19T04:25:01.862Z,41.10
2022-10-19T04:25:48.741Z,42.08
2022-10-19T04:26:40.750Z,42.38
2022-10-19T04:27:27.732Z,43.58
2022-10-19T04:28:14.649Z,44.42
2022-10-19T04:29:02.285Z,43.80
2022-10-19T04:29:49.180Z,42.97
2022-10-19T04:30:36.169Z,43.40
2022-10-19T04:31:23.061Z,44.25
2022-10-19T04:32:09.950Z,43.75
2022-10-19T04:32:56.999Z,43.03
2022-10-19T04:33:43.970Z,41.55
2022-10-19T04:34:30.844Z,41.33
2022-10-19T04:35:17.739Z,42.08
2022-10-19T04:36:07.152Z,43.80
2022-10-19T04:36:54.200Z,42.03
2022-10-19T04:37:41.089Z,43.13
2022-10-19T04:38:29.199Z,42.28
2022-10-19T04:39:16.200Z,42.97
2022-10-19T04:40:04.100Z,42.50
2022-10-19T04:40:51.130Z,41.75
2022-10-19T04:41:38.900Z,41.13
2022-10-19T04:42:25.769Z,43.40
2022-10-19T04:43:12.734Z,42.20
2022-10-19T04:44:01.501Z,42.08
2022-10-19T04:44:48.382Z,42.72
2022-10-19T04:45:35.991Z,43.70
2022-10-19T04:46:22.921Z,41.22
2022-10-19T04:47:09.761Z,44.75
2022-10-19T04:47:59.730Z,41.67
2022-10-19T04:48:48.049Z,41.08
2022-10-19T04:49:35.000Z,42.85
2022-10-19T04:50:22.004Z,40.33
2022-10-19T04:51:10.030Z,40.25
2022-10-19T04:51:56.910Z,39.30
2022-10-19T04:52:45.469Z,40.00
2022-10-19T04:53:33.384Z,39.95
2022-10-19T04:54:20.321Z,40.05
2022-10-19T04:55:07.551Z,39.85
2022-10-19T04:55:54.510Z,41.88
2022-10-19T04:56:41.491Z,41.20
2022-10-19T04:57:28.439Z,42.25
2022-10-19T04:58:15.471Z,41.40
2022-10-19T04:59:02.489Z,42.00
2022-10-19T04:59:49.530Z,41.35
2022-10-19T05:00:38.793Z,40.25
2022-10-19T05:01:27.669Z,39.88
2022-10-19T05:02:14.550Z,38.60
2022-10-19T05:03:01.528Z,37.95
2022-10-19T05:03:48.927Z,38.90
2022-10-19T05:04:35.849Z,38.35
2022-10-19T05:05:24.539Z,38.63
2022-10-19T05:06:12.510Z,37.30
2022-10-19T05:06:59.460Z,39.13
2022-10-19T05:07:49.225Z,40.28
2022-10-19T05:08:37.238Z,40.78
2022-10-19T05:09:24.393Z,40.53
2022-10-19T05:10:14.131Z,41.05
2022-10-19T05:11:06.303Z,37.55
2022-10-19T05:11:53.233Z,37.75
2022-10-19T05:12:40.170Z,36.85
2022-10-19T05:13:26.989Z,36.38
2022-10-19T05:14:13.985Z,38.58
2022-10-19T05:15:00.990Z,37.30
2022-10-19T05:15:58.133Z,37.30
2022-10-19T05:16:45.222Z,34.80
2022-10-19T05:17:33.279Z,35.28
2022-10-19T05:18:20.332Z,34.80
2022-10-19T05:19:07.360Z,36.92
2022-10-19T05:19:54.340Z,36.63
2022-10-19T05:20:41.211Z,36.72
2022-10-19T05:21:29.160Z,35.17
2022-10-19T05:22:16.105Z,34.97
2022-10-19T05:23:06.320Z,34.67
2022-10-19T05:23:55.344Z,34.83
2022-10-19T05:24:42.280Z,35.22
2022-10-19T05:25:29.220Z,34.88
2022-10-19T05:26:18.320Z,35.13
2022-10-19T05:27:05.222Z,35.42
2022-10-19T05:27:53.310Z,34.38
2022-10-19T05:28:40.547Z,33.78
2022-10-19T05:29:28.551Z,33.03
2022-10-19T05:30:15.640Z,33.33
2022-10-19T05:31:11.562Z,31.23
2022-10-19T05:31:58.511Z,31.92
2022-10-19T05:32:45.549Z,30.65
2022-10-19T05:33:32.721Z,28.35
2022-10-19T05:34:19.710Z,27.77
2022-10-19T05:35:06.927Z,28.08
2022-10-19T05:35:53.850Z,27.48
2022-10-19T05:36:41.098Z,26.40
2022-10-19T05:37:28.202Z,27.37
2022-10-19T05:38:15.022Z,26.55
2022-10-19T05:39:06.901Z,25.00
2022-10-19T05:39:55.110Z,24.23
2022-10-19T05:40:49.201Z,24.42
2022-10-19T05:41:38.501Z,22.42
2022-10-19T05:42:25.402Z,21.83
2022-10-19T05:43:12.370Z,22.65
2022-10-19T05:44:01.571Z,21.12
2022-10-19T05:44:48.517Z,21.60
2022-10-19T05:45:35.601Z,21.08
2022-10-19T05:46:22.800Z,20.85
2022-10-19T05:47:09.768Z,20.20
2022-10-19T05:47:56.771Z,19.70
2022-10-19T05:48:43.994Z,19.42
2022-10-19T05:49:31.150Z,19.37
2022-10-19T05:50:18.109Z,19.30
2022-10-19T05:51:06.446Z,19.25
2022-10-19T05:51:53.429Z,19.33
2022-10-19T05:52:40.303Z,19.30
2022-10-19T05:53:28.154Z,18.90
2022-10-19T05:54:15.420Z,19.60
2022-10-19T05:55:02.290Z,19.20
2022-10-19T05:55:49.189Z,17.92
2022-10-19T05:56:36.080Z,19.02
2022-10-19T05:57:23.029Z,18.92
2022-10-19T05:58:09.979Z,18.10
2022-10-19T05:58:58.020Z,18.12
2022-10-19T05:59:44.970Z,17.65
2022-10-19T06:00:31.901Z,18.20
2022-10-19T06:01:20.280Z,18.00
2022-10-19T06:02:07.358Z,17.65
2022-10-19T06:02:58.987Z,17.95
2022-10-19T06:03:47.320Z,18.50
2022-10-19T06:04:34.270Z,17.77
2022-10-19T06:05:21.171Z,17.83
2022-10-19T06:06:08.971Z,17.62
2022-10-19T06:06:55.900Z,18.92
2022-10-19T06:07:42.730Z,18.10
2022-10-19T06:08:29.619Z,18.10
2022-10-19T06:09:16.840Z,18.50
2022-10-19T06:10:04.320Z,19.52
2022-10-19T06:10:51.611Z,18.87
2022-10-19T06:11:40.551Z,18.48
2022-10-19T06:12:27.529Z,18.83
2022-10-19T06:13:15.230Z,19.73
2022-10-19T06:14:06.619Z,18.52
2022-10-19T06:14:53.482Z,17.95
2022-10-19T06:15:40.979Z,18.20
2022-10-19T06:16:29.081Z,19.05
2022-10-19T06:17:16.431Z,18.95
2022-10-19T06:18:07.881Z,18.67
2022-10-19T06:18:55.700Z,19.80
2022-10-19T06:19:42.743Z,18.48
2022-10-19T06:20:29.819Z,19.52
2022-10-19T06:21:18.620Z,19.00
2022-10-19T06:22:05.489Z,18.85
2022-10-19T06:22:52.581Z,18.83
2022-10-19T06:23:39.700Z,18.30
2022-10-19T06:24:26.994Z,18.92
2022-10-19T06:25:17.917Z,18.27
2022-10-19T06:26:09.701Z,18.08
2022-10-19T06:26:56.541Z,17.37
2022-10-19T06:27:43.580Z,18.05
2022-10-19T06:28:30.781Z,16.80
2022-10-19T06:29:17.771Z,15.60
2022-10-19T06:30:05.300Z,17.15
2022-10-19T06:30:52.489Z,16.42
2022-10-19T06:31:39.762Z,15.82
2022-10-19T06:32:26.721Z,15.50
2022-10-19T06:33:13.991Z,16.50
2022-10-19T06:34:01.425Z,15.60
2022-10-19T06:34:49.323Z,14.02
2022-10-19T06:35:37.089Z,15.38
2022-10-19T06:36:26.590Z,14.23
2022-10-19T06:37:13.440Z,14.10
2022-10-19T06:38:00.682Z,14.02
2022-10-19T06:38:48.470Z,13.62
2022-10-19T06:39:35.362Z,14.35
2022-10-19T06:40:22.403Z,13.65
2022-10-19T06:41:10.133Z,13.55
2022-10-19T06:41:57.161Z,13.38
2022-10-19T06:42:44.001Z,13.50
2022-10-19T06:43:31.012Z,13.60
2022-10-19T06:44:18.040Z,13.77
2022-10-19T06:45:10.180Z,13.18
2022-10-19T06:45:57.201Z,12.57
2022-10-19T06:46:44.044Z,12.35
2022-10-19T06:47:33.503Z,11.40
2022-10-19T06:48:20.837Z,11.93
2022-10-19T06:49:07.719Z,11.98
2022-10-19T06:49:54.620Z,11.27
2022-10-19T06:50:41.531Z,11.40
2022-10-19T06:51:30.370Z,11.68
2022-10-19T06:52:17.290Z,11.38
2022-10-19T06:53:04.169Z,12.00
2022-10-19T06:53:55.633Z,12.25
2022-10-19T06:54:43.810Z,10.77
2022-10-19T06:55:30.755Z,10.98
2022-10-19T06:56:17.860Z,11.05
2022-10-19T06:57:04.902Z,10.07
2022-10-19T06:57:52.011Z,10.65
2022-10-19T06:58:39.671Z,9.70
2022-10-19T06:59:27.120Z,9.93
2022-10-19T07:00:14.782Z,8.90
2022-10-19T07:01:02.185Z,9.23
2022-10-19T07:01:49.210Z,8.70
2022-10-19T07:02:36.079Z,8.25
2022-10-19T07:03:24.491Z,9.18
2022-10-19T07:04:11.640Z,8.38
2022-10-19T07:04:59.650Z,8.63
2022-10-19T07:05:55.935Z,8.23
2022-10-19T07:06:42.833Z,8.20
2022-10-19T07:07:29.925Z,7.90
2022-10-19T07:08:16.841Z,7.65
2022-10-19T07:09:04.090Z,7.50
2022-10-19T07:09:51.180Z,7.55
2022-10-19T07:10:38.204Z,7.50
2022-10-19T07:11:25.584Z,7.80
2022-10-19T07:12:12.710Z,7.10
2022-10-19T07:12:59.942Z,8.00
2022-10-19T07:13:46.939Z,7.40
2022-10-19T07:14:38.916Z,7.00
2022-10-19T07:15:25.931Z,6.93
2022-10-19T07:16:21.200Z,6.40
2022-10-19T07:17:08.671Z,6.05
2022-10-19T07:17:55.730Z,6.28
2022-10-19T07:18:43.161Z,6.18
2022-10-19T07:19:30.224Z,6.00
2022-10-19T07:20:17.306Z,6.37
2022-10-19T07:21:09.340Z,6.30
2022-10-19T07:21:56.400Z,5.90
2022-10-19T07:22:43.289Z,6.20
2022-10-19T07:23:31.532Z,5.68
2022-10-19T07:24:18.911Z,6.30
2022-10-19T07:25:06.131Z,5.80
2022-10-19T07:25:54.090Z,5.85
2022-10-19T07:26:41.091Z,5.45
2022-10-19T07:27:28.232Z,5.90
2022-10-19T07:28:15.162Z,5.50
2022-10-19T07:29:03.205Z,5.78
2022-10-19T07:29:50.542Z,5.53
2022-10-19T07:30:39.059Z,5.45
2022-10-19T07:31:27.620Z,5.93
2022-10-19T07:32:14.564Z,5.70
2022-10-19T07:33:01.424Z,5.65
2022-10-19T07:33:52.893Z,5.32
2022-10-19T07:34:39.881Z,5.57
2022-10-19T07:35:27.265Z,5.95
2022-10-19T07:36:14.501Z,5.78
2022-10-19T07:37:01.521Z,6.05
2022-10-19T07:37:48.433Z,5.70
2022-10-19T07:38:36.289Z,5.50
2022-10-19T07:39:23.293Z,5.70
2022-10-19T07:40:10.890Z,5.53
2022-10-19T07:41:12.932Z,5.80
2022-10-19T07:41:59.830Z,5.82
2022-10-19T07:42:46.811Z,5.68
2022-10-19T07:43:34.371Z,5.47
2022-10-19T07:44:21.352Z,5.60
2022-10-19T07:45:08.513Z,5.37
2022-10-19T07:46:06.199Z,5.18
2022-10-19T07:46:53.259Z,5.97
2022-10-19T07:47:40.110Z,5.20
2022-10-19T07:48:27.401Z,5.80
2022-10-19T07:49:19.302Z,5.07
2022-10-19T07:50:06.462Z,5.22
2022-10-19T07:50:53.421Z,5.15
2022-10-19T07:51:40.866Z,5.30
2022-10-19T07:52:29.139Z,5.90
2022-10-19T07:53:16.781Z,5.80
2022-10-19T07:54:04.340Z,5.18
2022-10-19T07:54:51.228Z,5.78
2022-10-19T07:55:38.169Z,6.12
2022-10-19T07:56:27.021Z,5.70
2022-10-19T07:57:14.150Z,5.53
2022-10-19T07:58:02.291Z,5.90
2022-10-19T07:58:51.361Z,5.70
2022-10-19T07:59:38.471Z,6.22
2022-10-19T08:00:25.647Z,5.55
2022-10-19T08:01:41.304Z,5.75
2022-10-19T08:02:39.382Z,5.65
2022-10-19T08:04:59.796Z,5.20
2022-10-19T08:05:47.949Z,5.20
2022-10-19T08:06:35.331Z,5.95
2022-10-19T08:07:22.300Z,6.78
2022-10-19T08:08:09.300Z,6.28
2022-10-19T08:08:56.917Z,6.25
2022-10-19T08:09:59.325Z,6.25
2022-10-19T08:10:46.374Z,6.28
2022-10-19T08:11:34.730Z,6.65
2022-10-19T08:12:21.740Z,7.28
2022-10-19T08:13:08.730Z,7.05
2022-10-19T08:13:56.231Z,6.68
2022-10-19T08:14:43.191Z,6.62
2022-10-19T08:15:30.670Z,6.60
2022-10-19T08:16:28.412Z,7.03
2022-10-19T08:17:17.901Z,6.85
2022-10-19T08:18:04.969Z,7.10
2022-10-19T08:18:53.109Z,6.55
2022-10-19T08:19:43.637Z,6.22
2022-10-19T08:20:30.701Z,6.15
2022-10-19T08:21:18.116Z,6.15
2022-10-19T08:22:05.092Z,6.75
2022-10-19T08:22:56.385Z,6.00
2022-10-19T08:23:45.751Z,5.70
2022-10-19T08:24:33.182Z,6.25
2022-10-19T08:25:20.568Z,6.15
2022-10-19T08:26:07.560Z,5.50
2022-10-19T08:26:55.007Z,6.35
2022-10-19T08:27:41.908Z,5.97
2022-10-19T08:28:28.860Z,6.53
2022-10-19T08:29:18.329Z,6.28
2022-10-19T08:30:05.700Z,6.30
2022-10-19T08:30:58.170Z,5.85
2022-10-19T08:31:46.550Z,5.53
2022-10-19T08:32:33.926Z,5.72
2022-10-19T08:33:21.049Z,5.75
2022-10-19T08:34:08.800Z,5.05
2022-10-19T08:34:55.755Z,5.80
2022-10-19T08:35:42.611Z,5.78
2022-10-19T08:36:31.598Z,6.30
2022-10-19T08:37:40.115Z,5.62
2022-10-19T08:38:26.841Z,5.57
2022-10-19T08:39:14.680Z,5.72
2022-10-19T08:40:01.480Z,5.30
2022-10-19T08:40:48.451Z,5.32
2022-10-19T08:41:41.245Z,5.03
2022-10-19T08:43:10.460Z,5.60
2022-10-19T08:44:00.296Z,5.62
2022-10-19T08:44:47.080Z,5.97
2022-10-19T08:45:43.569Z,5.80
2022-10-19T08:46:42.570Z,5.07
2022-10-19T08:47:51.372Z,4.60
2022-10-19T08:48:39.748Z,5.00
2022-10-19T08:49:27.962Z,4.57
2022-10-19T08:50:32.220Z,4.32
2022-10-19T08:51:19.230Z,4.50
2022-10-19T08:52:10.550Z,4.32
2022-10-19T08:53:32.830Z,4.65
2022-10-19T08:54:19.840Z,4.32
2022-10-19T08:55:20.457Z,4.32
2022-10-19T08:56:51.446Z,3.95
2022-10-19T08:58:04.410Z,4.05
2022-10-19T08:59:15.620Z,3.90
2022-10-19T09:00:35.270Z,3.92
2022-10-19T09:01:41.380Z,3.62
2022-10-19T09:02:43.201Z,3.80
2022-10-19T09:03:54.933Z,3.85
2022-10-19T09:04:47.289Z,4.10
2022-10-19T09:05:42.902Z,4.30
2022-10-19T09:06:43.535Z,4.68
2022-10-19T09:09:53.949Z,4.80
2022-10-19T09:10:43.401Z,4.50
2022-10-19T09:11:37.148Z,4.87
2022-10-19T09:12:58.564Z,4.68
2022-10-19T09:14:04.356Z,4.68
2022-10-19T09:15:01.203Z,5.10
2022-10-19T09:15:50.540Z,4.72
2022-10-19T09:16:37.440Z,4.93
2022-10-19T09:17:25.570Z,4.53
2022-10-19T09:18:25.832Z,4.68
2022-10-19T09:19:18.732Z,5.10
2022-10-19T09:20:20.231Z,5.15
2022-10-19T09:21:30.159Z,4.75
2022-10-19T09:22:30.019Z,4.75
2022-10-19T09:23:36.153Z,4.60
2022-10-19T09:24:47.173Z,4.50
2022-10-19T09:25:35.771Z,4.75
2022-10-19T09:26:26.957Z,4.43
2022-10-19T09:27:21.625Z,4.20
2022-10-19T09:28:36.617Z,4.47
2022-10-19T09:29:27.630Z,4.45
2022-10-19T09:30:23.955Z,4.70
2022-10-19T09:31:17.153Z,5.47
2022-10-19T09:32:06.490Z,5.28
2022-10-19T09:33:00.662Z,5.10
2022-10-19T09:33:52.396Z,5.40
2022-10-19T09:34:45.728Z,5.15
2022-10-19T09:35:36.790Z,4.90
2022-10-19T09:36:39.329Z,5.55
2022-10-19T09:37:32.689Z,5.35
2022-10-19T09:38:20.571Z,5.47
2022-10-19T09:39:14.150Z,5.87
2022-10-19T09:40:01.032Z,5.50
2022-10-19T09:40:47.879Z,6.10
2022-10-19T09:41:34.811Z,5.40
2022-10-19T09:42:30.535Z,5.32
2022-10-19T09:43:21.900Z,5.22
2022-10-19T09:44:08.632Z,5.90
2022-10-19T09:44:55.700Z,5.95
2022-10-19T09:45:48.949Z,5.10
2022-10-19T09:47:40.464Z,5.40
2022-10-19T09:48:30.209Z,5.62
2022-10-19T09:49:17.111Z,5.75
2022-10-19T09:50:07.078Z,5.62
2022-10-19T09:50:59.709Z,5.90
2022-10-19T09:51:51.916Z,5.60
2022-10-19T09:52:40.121Z,6.62
2022-10-19T09:53:27.700Z,5.80
2022-10-19T09:54:33.093Z,5.70
2022-10-19T09:55:42.575Z,6.47
2022-10-19T09:56:29.802Z,5.85
2022-10-19T09:57:22.201Z,6.25
2022-10-19T09:58:15.633Z,5.82
2022-10-19T09:59:02.860Z,5.93
2022-10-19T09:59:52.979Z,6.47
2022-10-19T10:00:45.112Z,5.50
2022-10-19T10:01:43.510Z,6.30
2022-10-19T10:02:33.059Z,5.70
2022-10-19T10:03:43.736Z,6.13
2022-10-19T10:04:30.730Z,5.85
2022-10-19T10:05:18.625Z,6.05
2022-10-19T10:06:09.259Z,5.85
2022-10-19T10:06:57.274Z,6.12
2022-10-19T10:07:44.751Z,5.70
2022-10-19T10:08:34.503Z,6.00
2022-10-19T10:09:27.389Z,5.60
2022-10-19T10:10:28.088Z,5.68
2022-10-19T10:11:25.561Z,5.60
2022-10-19T10:12:16.223Z,5.50
2022-10-19T10:13:03.392Z,5.80
2022-10-19T10:13:52.589Z,5.37
2022-10-19T10:14:40.763Z,5.20
2022-10-19T10:15:42.754Z,5.35
2022-10-19T10:16:30.639Z,5.05
2022-10-19T10:17:30.179Z,5.82
2022-10-19T10:18:17.880Z,4.90
2022-10-19T10:19:07.279Z,5.00
2022-10-19T10:20:00.234Z,5.75
2022-10-19T10:21:06.005Z,5.35
2022-10-19T10:21:55.842Z,5.07
2022-10-19T10:22:52.759Z,5.03
2022-10-19T10:23:40.025Z,5.35
2022-10-19T10:24:31.954Z,5.35
2022-10-19T10:25:19.379Z,5.35
2022-10-19T10:26:16.890Z,5.18
2022-10-19T10:27:05.614Z,6.05
2022-10-19T10:28:18.809Z,5.80
2022-10-19T10:29:20.859Z,5.80
2022-10-19T10:30:10.280Z,5.25
2022-10-19T10:31:08.319Z,5.05
2022-10-19T10:32:06.490Z,6.03
2022-10-19T10:32:54.757Z,5.72
2022-10-19T10:33:45.947Z,5.43
2022-10-19T10:35:00.994Z,5.72
2022-10-19T10:35:55.860Z,5.80
2022-10-19T10:36:42.884Z,5.62
2022-10-19T10:37:38.510Z,5.20
2022-10-19T10:38:32.847Z,5.75
2022-10-19T10:39:20.395Z,5.45
2022-10-19T10:40:29.957Z,5.55
2022-10-19T10:41:20.374Z,5.28
2022-10-19T10:42:10.037Z,5.53
2022-10-19T10:43:01.997Z,6.00
2022-10-19T10:43:58.435Z,5.60
2022-10-19T10:44:52.425Z,5.80
2022-10-19T10:45:44.515Z,6.12
2022-10-19T10:46:58.073Z,5.70
2022-10-19T10:47:48.760Z,5.62
2022-10-19T10:48:37.539Z,5.90
2022-10-19T10:49:36.499Z,5.37
2022-10-19T10:50:27.017Z,6.93
2022-10-19T10:52:11.574Z,8.50
2022-10-19T10:53:04.341Z,7.90
2022-10-19T10:53:51.382Z,5.87
2022-10-19T10:54:38.431Z,5.40
2022-10-19T10:55:26.771Z,6.47
2022-10-19T10:56:30.450Z,5.53
2022-10-19T10:57:20.296Z,6.40
2022-10-19T10:58:17.020Z,6.10
2022-10-19T10:59:31.062Z,6.20
2022-10-19T11:00:22.305Z,5.30
2022-10-19T11:01:18.854Z,5.43
2022-10-19T11:02:39.691Z,4.60
2022-10-19T11:03:29.119Z,5.50
2022-10-19T11:04:24.698Z,5.82
2022-10-19T11:05:26.803Z,5.05
2022-10-19T11:06:14.964Z,5.53
2022-10-19T11:07:15.798Z,5.07
2022-10-19T11:08:14.996Z,5.05